Aviation Digital Data Service (ADDS)

Output produced by METARs form (2308 UTC 24 October 2014)
found at http://www.aviationweather.gov/adds/metars/
 
KLNS 242253Z 26008KT 10SM CLR 15/03 A2988 RMK AO2 SLP116 T01500033
KLNS 242153Z 28008KT 10SM CLR 16/02 A2986 RMK AO2 SLP110 T01560022
KLNS 242053Z 30013KT 10SM CLR 17/01 A2985 RMK AO2 SLP107 T01720011 55005
KLNS 241953Z 30013KT 10SM CLR 18/04 A2984 RMK AO2 SLP105 T01780039
KLNS 241853Z 32013G20KT 10SM CLR 18/05 A2985 RMK AO2 SLP106 T01830050
KLNS 241753Z 31012KT 10SM CLR 18/06 A2986 RMK AO2 SLP111 T01830061 10189 20117 58015
KLNS 241653Z 32014KT 10SM CLR 18/06 A2989 RMK AO2 SLP119 T01780061
KLNS 241553Z 32013G19KT 10SM FEW045 17/07 A2992 RMK AO2 SLP130 T01720067
KLNS 241453Z 32017G22KT 10SM FEW040 16/07 A2991 RMK AO2 SLP128 T01610067 50004
KLNS 241353Z 32012KT 10SM CLR 14/07 A2993 RMK AO2 SLP133 T01440067
KLNS 241253Z 31014G21KT 10SM CLR 13/06 A2991 RMK AO2 SLP129 T01280061
KLNS 241153Z 29007KT 10SM FEW040 12/06 A2990 RMK AO2 SLP124 T01220061 10139 20122 51006
KLNS 241053Z 32012KT 10SM OVC034 13/06 A2990 RMK AO2 SLP123 T01330061
KLNS 240953Z AUTO 32013KT 10SM OVC034 13/06 A2989 RMK AO2 SLP121 T01280061
KLNS 240853Z AUTO 32010KT 10SM BKN039 13/06 A2988 RMK AO2 SLP118 T01280056 51007
KLNS 240753Z AUTO 33010KT 10SM OVC036 13/06 A2988 RMK AO2 SLP116 T01330061
KLNS 240653Z AUTO 32009KT 10SM OVC037 14/06 A2987 RMK AO2 SLP115 T01390056
KLNS 240553Z AUTO 33009KT 10SM OVC042 14/05 A2986 RMK AO2 SLP110 T01390050 10139 20122 55009
KLNS 240453Z AUTO 30005KT 10SM OVC044 13/05 A2986 RMK AO2 SLP109 T01330050 401390100
KLNS 240353Z AUTO 32010KT 10SM OVC046 14/04 A2987 RMK AO2 SLP115 T01390044
KLNS 240253Z AUTO 34008KT 10SM OVC046 13/05 A2988 RMK AO2 SLP119 T01330050 50001
KLNS 240153Z 30005KT 10SM OVC043 12/07 A2989 RMK AO2 SLP121 T01220072
KLNS 240053Z 33009KT 10SM OVC039 13/07 A2989 RMK AO2 SLP121 T01280072
KLNS 232353Z 35012G18KT 10SM OVC044 13/07 A2988 RMK AO2 SLP118 60000 T01280072 10139 20117 51019
KLNS 232253Z 36014KT 10SM BKN038 OVC046 12/08 A2987 RMK AO2 RAB08E37 SLP116 P0000 T01220078
KLNS 232153Z 35007KT 10SM OVC035 13/07 A2985 RMK AO2 SLP107 T01330067
KLNS 232053Z 34010KT 10SM OVC033 14/07 A2983 RMK AO2 SLP099 T01390067 55000
KLNS 231953Z 33010KT 10SM OVC032 14/07 A2982 RMK AO2 SLP099 T01390067
KLNS 231853Z 34010KT 10SM OVC030 13/07 A2982 RMK AO2 SLP099 T01330067
KLNS 231831Z 34015KT 10SM OVC030 13/07 A2982 RMK AO2 T01330067
KLNS 231753Z 33012KT 10SM OVC029 13/07 A2983 RMK AO2 SLP099 T01330067 10139 20111 56008
KLNS 231735Z 34010KT 10SM OVC029 13/07 A2983 RMK AO2 T01330067
KLNS 231700Z 33012G20KT 10SM BKN030 BKN035 OVC075 13/07 A2983 RMK AO2 T01330072
KLNS 231653Z 34013G24KT 10SM BKN028 BKN034 OVC075 13/07 A2983 RMK AO2 SLP099 T01330067
KLNS 231553Z 34014G21KT 10SM OVC027 12/07 A2984 RMK AO2 SLP106 T01220067
KLNS 231453Z 33008G19KT 10SM OVC028 12/06 A2985 RMK AO2 SLP109 T01170061 51004
KLNS 231353Z 33011G21KT 10SM OVC028 12/06 A2985 RMK AO2 SLP108 T01170056
KLNS 231304Z 32013KT 10SM OVC029 11/06 A2985 RMK AO2 T01110056
KLNS 231253Z 32015G21KT 10SM OVC030 11/06 A2985 RMK AO2 SLP108 T01110056
KLNS 231201Z 32014G21KT 10SM SCT029 BKN050 OVC065 11/06 A2984 RMK AO2 T01110056
KLNS 231153Z 33012G22KT 10SM BKN029 OVC050 11/06 A2984 RMK AO2 RAB12E24 SLP104 P0000 60000 70006 T01110056 10111 20106 58003